sensor_id;sensor_type;location;lat;lon;timestamp;P1;durP1;ratioP1;P2;durP2;ratioP2
21258;SDS011;10787;53.364;-1.480;2022-11-20T00:01:30;46.30;;;24.20;;
21258;SDS011;10787;53.364;-1.480;2022-11-20T00:03:58;45.77;;;25.60;;
21258;SDS011;10787;53.364;-1.480;2022-11-20T00:06:25;48.43;;;25.23;;
21258;SDS011;10787;53.364;-1.480;2022-11-20T00:08:53;43.37;;;23.37;;
21258;SDS011;10787;53.364;-1.480;2022-11-20T00:11:21;49.40;;;24.57;;
21258;SDS011;10787;53.364;-1.480;2022-11-20T00:13:50;45.27;;;23.87;;
21258;SDS011;10787;53.364;-1.480;2022-11-20T00:16:19;47.13;;;23.43;;
21258;SDS011;10787;53.364;-1.480;2022-11-20T00:18:46;47.70;;;23.87;;
21258;SDS011;10787;53.364;-1.480;2022-11-20T00:21:30;39.70;;;22.70;;
21258;SDS011;10787;53.364;-1.480;2022-11-20T00:23:57;43.30;;;23.83;;
21258;SDS011;10787;53.364;-1.480;2022-11-20T00:26:24;43.37;;;23.87;;
21258;SDS011;10787;53.364;-1.480;2022-11-20T00:28:53;42.10;;;24.00;;
21258;SDS011;10787;53.364;-1.480;2022-11-20T00:31:20;44.63;;;23.60;;
21258;SDS011;10787;53.364;-1.480;2022-11-20T00:33:46;46.10;;;23.57;;
21258;SDS011;10787;53.364;-1.480;2022-11-20T00:36:13;44.67;;;24.03;;
21258;SDS011;10787;53.364;-1.480;2022-11-20T00:38:41;50.33;;;23.50;;
21258;SDS011;10787;53.364;-1.480;2022-11-20T00:41:08;46.73;;;23.50;;
21258;SDS011;10787;53.364;-1.480;2022-11-20T00:43:36;47.60;;;23.97;;
21258;SDS011;10787;53.364;-1.480;2022-11-20T00:46:04;46.50;;;23.33;;
21258;SDS011;10787;53.364;-1.480;2022-11-20T00:48:32;43.43;;;22.77;;
21258;SDS011;10787;53.364;-1.480;2022-11-20T00:50:58;42.47;;;23.03;;
21258;SDS011;10787;53.364;-1.480;2022-11-20T00:53:24;47.20;;;23.63;;
21258;SDS011;10787;53.364;-1.480;2022-11-20T00:55:58;48.20;;;23.13;;
21258;SDS011;10787;53.364;-1.480;2022-11-20T00:58:30;44.13;;;22.87;;
21258;SDS011;10787;53.364;-1.480;2022-11-20T01:01:16;45.53;;;23.27;;
21258;SDS011;10787;53.364;-1.480;2022-11-20T01:03:45;42.27;;;22.53;;
21258;SDS011;10787;53.364;-1.480;2022-11-20T01:06:22;43.13;;;23.10;;
21258;SDS011;10787;53.364;-1.480;2022-11-20T01:08:50;42.17;;;22.20;;
21258;SDS011;10787;53.364;-1.480;2022-11-20T01:11:21;45.67;;;22.97;;
21258;SDS011;10787;53.364;-1.480;2022-11-20T01:13:49;46.20;;;22.90;;
21258;SDS011;10787;53.364;-1.480;2022-11-20T01:18:49;43.67;;;22.93;;
21258;SDS011;10787;53.364;-1.480;2022-11-20T01:21:18;61.13;;;23.80;;
21258;SDS011;10787;53.364;-1.480;2022-11-20T01:23:46;46.93;;;22.43;;
21258;SDS011;10787;53.364;-1.480;2022-11-20T01:26:14;42.90;;;22.80;;
21258;SDS011;10787;53.364;-1.480;2022-11-20T01:28:48;47.57;;;22.77;;
21258;SDS011;10787;53.364;-1.480;2022-11-20T01:31:16;45.43;;;22.67;;
21258;SDS011;10787;53.364;-1.480;2022-11-20T01:33:44;43.07;;;22.03;;
21258;SDS011;10787;53.364;-1.480;2022-11-20T01:36:11;43.43;;;21.80;;
21258;SDS011;10787;53.364;-1.480;2022-11-20T01:38:38;42.93;;;21.57;;
21258;SDS011;10787;53.364;-1.480;2022-11-20T01:41:04;42.87;;;20.83;;
21258;SDS011;10787;53.364;-1.480;2022-11-20T01:43:31;40.17;;;19.97;;
21258;SDS011;10787;53.364;-1.480;2022-11-20T01:48:33;40.47;;;20.60;;
21258;SDS011;10787;53.364;-1.480;2022-11-20T01:51:08;37.63;;;19.77;;
21258;SDS011;10787;53.364;-1.480;2022-11-20T01:53:42;37.73;;;17.67;;
21258;SDS011;10787;53.364;-1.480;2022-11-20T01:56:21;35.97;;;18.40;;
21258;SDS011;10787;53.364;-1.480;2022-11-20T01:58:48;39.57;;;19.47;;
21258;SDS011;10787;53.364;-1.480;2022-11-20T02:01:19;38.60;;;19.47;;
21258;SDS011;10787;53.364;-1.480;2022-11-20T02:03:49;35.80;;;18.77;;
21258;SDS011;10787;53.364;-1.480;2022-11-20T02:08:47;42.20;;;19.03;;
21258;SDS011;10787;53.364;-1.480;2022-11-20T02:11:13;38.93;;;18.70;;
21258;SDS011;10787;53.364;-1.480;2022-11-20T02:13:52;33.80;;;18.70;;
21258;SDS011;10787;53.364;-1.480;2022-11-20T02:16:20;38.43;;;18.40;;
21258;SDS011;10787;53.364;-1.480;2022-11-20T02:18:56;40.47;;;19.50;;
21258;SDS011;10787;53.364;-1.480;2022-11-20T02:24:09;34.93;;;18.47;;
21258;SDS011;10787;53.364;-1.480;2022-11-20T02:27:02;34.07;;;17.17;;
21258;SDS011;10787;53.364;-1.480;2022-11-20T02:29:42;39.63;;;18.07;;
21258;SDS011;10787;53.364;-1.480;2022-11-20T02:35:10;34.20;;;17.00;;
21258;SDS011;10787;53.364;-1.480;2022-11-20T02:37:53;34.73;;;17.10;;
21258;SDS011;10787;53.364;-1.480;2022-11-20T02:40:20;34.27;;;17.07;;
21258;SDS011;10787;53.364;-1.480;2022-11-20T02:42:47;33.13;;;16.37;;
21258;SDS011;10787;53.364;-1.480;2022-11-20T02:45:13;33.70;;;16.53;;
21258;SDS011;10787;53.364;-1.480;2022-11-20T02:47:38;31.27;;;16.57;;
21258;SDS011;10787;53.364;-1.480;2022-11-20T02:50:04;34.80;;;16.17;;
21258;SDS011;10787;53.364;-1.480;2022-11-20T02:52:31;32.30;;;15.93;;
21258;SDS011;10787;53.364;-1.480;2022-11-20T02:54:57;31.03;;;15.80;;
21258;SDS011;10787;53.364;-1.480;2022-11-20T02:57:23;33.93;;;16.40;;
21258;SDS011;10787;53.364;-1.480;2022-11-20T02:59:49;31.27;;;15.83;;
21258;SDS011;10787;53.364;-1.480;2022-11-20T03:02:14;28.93;;;14.60;;
21258;SDS011;10787;53.364;-1.480;2022-11-20T03:04:40;32.93;;;15.57;;
21258;SDS011;10787;53.364;-1.480;2022-11-20T03:07:08;32.30;;;15.27;;
21258;SDS011;10787;53.364;-1.480;2022-11-20T03:09:34;29.97;;;14.40;;
21258;SDS011;10787;53.364;-1.480;2022-11-20T03:12:00;31.53;;;14.77;;
21258;SDS011;10787;53.364;-1.480;2022-11-20T03:14:26;32.20;;;15.40;;
21258;SDS011;10787;53.364;-1.480;2022-11-20T03:16:52;33.73;;;15.30;;
21258;SDS011;10787;53.364;-1.480;2022-11-20T03:19:18;29.30;;;15.37;;
21258;SDS011;10787;53.364;-1.480;2022-11-20T03:21:43;30.57;;;14.53;;
21258;SDS011;10787;53.364;-1.480;2022-11-20T03:24:09;33.27;;;13.83;;
21258;SDS011;10787;53.364;-1.480;2022-11-20T03:26:35;29.90;;;13.97;;
21258;SDS011;10787;53.364;-1.480;2022-11-20T03:29:02;26.57;;;13.87;;
21258;SDS011;10787;53.364;-1.480;2022-11-20T03:31:30;25.67;;;13.30;;
21258;SDS011;10787;53.364;-1.480;2022-11-20T03:33:58;33.63;;;14.03;;
21258;SDS011;10787;53.364;-1.480;2022-11-20T03:36:25;28.97;;;13.93;;
21258;SDS011;10787;53.364;-1.480;2022-11-20T03:38:52;27.40;;;13.27;;
21258;SDS011;10787;53.364;-1.480;2022-11-20T03:41:25;25.53;;;11.83;;
21258;SDS011;10787;53.364;-1.480;2022-11-20T03:43:54;26.30;;;12.27;;
21258;SDS011;10787;53.364;-1.480;2022-11-20T03:46:22;23.83;;;11.53;;
21258;SDS011;10787;53.364;-1.480;2022-11-20T03:48:48;27.80;;;11.30;;
21258;SDS011;10787;53.364;-1.480;2022-11-20T03:51:21;25.40;;;11.10;;
21258;SDS011;10787;53.364;-1.480;2022-11-20T03:53:48;19.00;;;9.83;;
21258;SDS011;10787;53.364;-1.480;2022-11-20T03:56:15;19.47;;;9.47;;
21258;SDS011;10787;53.364;-1.480;2022-11-20T03:58:43;19.27;;;8.87;;
21258;SDS011;10787;53.364;-1.480;2022-11-20T04:01:13;20.30;;;9.63;;
21258;SDS011;10787;53.364;-1.480;2022-11-20T04:03:41;23.90;;;9.43;;
21258;SDS011;10787;53.364;-1.480;2022-11-20T04:06:09;19.47;;;8.87;;
21258;SDS011;10787;53.364;-1.480;2022-11-20T04:08:38;14.80;;;7.83;;
21258;SDS011;10787;53.364;-1.480;2022-11-20T04:11:11;16.77;;;7.83;;
21258;SDS011;10787;53.364;-1.480;2022-11-20T04:13:39;15.20;;;7.73;;
21258;SDS011;10787;53.364;-1.480;2022-11-20T04:16:06;18.13;;;7.83;;
21258;SDS011;10787;53.364;-1.480;2022-11-20T04:18:32;17.20;;;8.60;;
21258;SDS011;10787;53.364;-1.480;2022-11-20T04:20:59;16.63;;;8.00;;
21258;SDS011;10787;53.364;-1.480;2022-11-20T04:23:25;15.77;;;8.40;;
21258;SDS011;10787;53.364;-1.480;2022-11-20T04:25:52;16.50;;;7.83;;
21258;SDS011;10787;53.364;-1.480;2022-11-20T04:28:17;14.63;;;8.13;;
21258;SDS011;10787;53.364;-1.480;2022-11-20T04:30:44;15.60;;;8.10;;
21258;SDS011;10787;53.364;-1.480;2022-11-20T04:33:10;15.60;;;8.63;;
21258;SDS011;10787;53.364;-1.480;2022-11-20T04:35:36;16.13;;;8.90;;
21258;SDS011;10787;53.364;-1.480;2022-11-20T04:38:03;14.73;;;8.30;;
21258;SDS011;10787;53.364;-1.480;2022-11-20T04:40:29;15.93;;;8.67;;
21258;SDS011;10787;53.364;-1.480;2022-11-20T04:42:56;13.77;;;7.77;;
21258;SDS011;10787;53.364;-1.480;2022-11-20T04:45:22;13.50;;;8.03;;
21258;SDS011;10787;53.364;-1.480;2022-11-20T04:47:48;15.00;;;7.73;;
21258;SDS011;10787;53.364;-1.480;2022-11-20T04:50:14;14.53;;;7.83;;
21258;SDS011;10787;53.364;-1.480;2022-11-20T04:52:41;14.00;;;7.37;;
21258;SDS011;10787;53.364;-1.480;2022-11-20T04:55:09;14.10;;;7.17;;
21258;SDS011;10787;53.364;-1.480;2022-11-20T04:57:35;15.13;;;7.57;;
21258;SDS011;10787;53.364;-1.480;2022-11-20T05:00:01;13.23;;;7.60;;
21258;SDS011;10787;53.364;-1.480;2022-11-20T05:02:26;11.03;;;6.90;;
21258;SDS011;10787;53.364;-1.480;2022-11-20T05:04:52;25.93;;;7.40;;
21258;SDS011;10787;53.364;-1.480;2022-11-20T05:07:18;14.20;;;7.43;;
21258;SDS011;10787;53.364;-1.480;2022-11-20T05:09:44;12.07;;;7.30;;
21258;SDS011;10787;53.364;-1.480;2022-11-20T05:12:10;13.20;;;7.67;;
21258;SDS011;10787;53.364;-1.480;2022-11-20T05:14:35;13.07;;;7.73;;
21258;SDS011;10787;53.364;-1.480;2022-11-20T05:17:01;12.50;;;7.40;;
21258;SDS011;10787;53.364;-1.480;2022-11-20T05:19:27;10.83;;;6.73;;
21258;SDS011;10787;53.364;-1.480;2022-11-20T05:21:53;13.30;;;7.40;;
21258;SDS011;10787;53.364;-1.480;2022-11-20T05:24:19;13.90;;;7.37;;
21258;SDS011;10787;53.364;-1.480;2022-11-20T05:26:45;9.73;;;6.30;;
21258;SDS011;10787;53.364;-1.480;2022-11-20T05:29:11;10.43;;;6.83;;
21258;SDS011;10787;53.364;-1.480;2022-11-20T05:31:38;9.33;;;5.87;;
21258;SDS011;10787;53.364;-1.480;2022-11-20T05:34:05;9.93;;;6.10;;
21258;SDS011;10787;53.364;-1.480;2022-11-20T05:36:32;8.30;;;5.87;;
21258;SDS011;10787;53.364;-1.480;2022-11-20T05:38:58;10.80;;;5.40;;
21258;SDS011;10787;53.364;-1.480;2022-11-20T05:41:23;7.93;;;5.10;;
21258;SDS011;10787;53.364;-1.480;2022-11-20T05:43:50;7.13;;;4.87;;
21258;SDS011;10787;53.364;-1.480;2022-11-20T05:46:18;9.33;;;5.07;;
21258;SDS011;10787;53.364;-1.480;2022-11-20T05:48:45;8.53;;;4.87;;
21258;SDS011;10787;53.364;-1.480;2022-11-20T05:51:13;8.63;;;5.27;;
21258;SDS011;10787;53.364;-1.480;2022-11-20T05:53:41;6.60;;;4.47;;
21258;SDS011;10787;53.364;-1.480;2022-11-20T05:56:12;16.93;;;5.67;;
21258;SDS011;10787;53.364;-1.480;2022-11-20T05:58:39;6.73;;;4.90;;
21258;SDS011;10787;53.364;-1.480;2022-11-20T06:01:15;4.93;;;3.40;;
21258;SDS011;10787;53.364;-1.480;2022-11-20T06:03:43;3.80;;;2.70;;
21258;SDS011;10787;53.364;-1.480;2022-11-20T06:06:12;3.93;;;2.83;;
21258;SDS011;10787;53.364;-1.480;2022-11-20T06:08:39;4.67;;;2.47;;
21258;SDS011;10787;53.364;-1.480;2022-11-20T06:11:06;3.50;;;2.43;;
21258;SDS011;10787;53.364;-1.480;2022-11-20T06:13:33;2.57;;;1.90;;
21258;SDS011;10787;53.364;-1.480;2022-11-20T06:15:59;2.40;;;2.00;;
21258;SDS011;10787;53.364;-1.480;2022-11-20T06:18:26;3.97;;;2.10;;
21258;SDS011;10787;53.364;-1.480;2022-11-20T06:21:02;2.20;;;1.53;;
21258;SDS011;10787;53.364;-1.480;2022-11-20T06:23:34;3.20;;;2.00;;
21258;SDS011;10787;53.364;-1.480;2022-11-20T06:26:02;2.83;;;2.23;;
21258;SDS011;10787;53.364;-1.480;2022-11-20T06:28:29;2.50;;;2.10;;
21258;SDS011;10787;53.364;-1.480;2022-11-20T06:30:55;3.83;;;2.50;;
21258;SDS011;10787;53.364;-1.480;2022-11-20T06:33:21;2.67;;;2.10;;
21258;SDS011;10787;53.364;-1.480;2022-11-20T06:35:46;4.23;;;2.30;;
21258;SDS011;10787;53.364;-1.480;2022-11-20T06:38:12;3.50;;;2.40;;
21258;SDS011;10787;53.364;-1.480;2022-11-20T06:40:41;2.60;;;2.30;;
21258;SDS011;10787;53.364;-1.480;2022-11-20T06:43:10;3.33;;;2.60;;
21258;SDS011;10787;53.364;-1.480;2022-11-20T06:45:37;3.27;;;2.47;;
21258;SDS011;10787;53.364;-1.480;2022-11-20T06:48:03;4.57;;;2.40;;
21258;SDS011;10787;53.364;-1.480;2022-11-20T06:50:29;3.70;;;2.50;;
21258;SDS011;10787;53.364;-1.480;2022-11-20T06:52:55;3.80;;;2.53;;
21258;SDS011;10787;53.364;-1.480;2022-11-20T06:55:21;3.00;;;2.40;;
21258;SDS011;10787;53.364;-1.480;2022-11-20T06:57:47;3.60;;;2.67;;
21258;SDS011;10787;53.364;-1.480;2022-11-20T07:00:13;3.73;;;2.70;;
21258;SDS011;10787;53.364;-1.480;2022-11-20T07:02:39;3.50;;;2.80;;
21258;SDS011;10787;53.364;-1.480;2022-11-20T07:05:05;3.83;;;3.13;;
21258;SDS011;10787;53.364;-1.480;2022-11-20T07:07:31;4.33;;;3.20;;
21258;SDS011;10787;53.364;-1.480;2022-11-20T07:09:57;6.63;;;3.53;;
21258;SDS011;10787;53.364;-1.480;2022-11-20T07:12:23;7.17;;;3.10;;
21258;SDS011;10787;53.364;-1.480;2022-11-20T07:14:48;6.80;;;3.53;;
21258;SDS011;10787;53.364;-1.480;2022-11-20T07:17:14;5.57;;;3.40;;
21258;SDS011;10787;53.364;-1.480;2022-11-20T07:19:41;7.97;;;4.10;;
21258;SDS011;10787;53.364;-1.480;2022-11-20T07:22:08;7.80;;;4.70;;
21258;SDS011;10787;53.364;-1.480;2022-11-20T07:24:34;6.90;;;4.87;;
21258;SDS011;10787;53.364;-1.480;2022-11-20T07:27:00;8.50;;;5.13;;
21258;SDS011;10787;53.364;-1.480;2022-11-20T07:29:26;9.27;;;4.90;;
21258;SDS011;10787;53.364;-1.480;2022-11-20T07:31:52;9.77;;;5.63;;
21258;SDS011;10787;53.364;-1.480;2022-11-20T07:34:18;8.23;;;5.33;;
21258;SDS011;10787;53.364;-1.480;2022-11-20T07:36:45;8.00;;;5.10;;
21258;SDS011;10787;53.364;-1.480;2022-11-20T07:39:10;6.63;;;5.20;;
21258;SDS011;10787;53.364;-1.480;2022-11-20T07:41:37;7.87;;;4.80;;
21258;SDS011;10787;53.364;-1.480;2022-11-20T07:44:03;8.27;;;5.37;;
21258;SDS011;10787;53.364;-1.480;2022-11-20T07:46:28;9.57;;;5.43;;
21258;SDS011;10787;53.364;-1.480;2022-11-20T07:48:54;15.27;;;7.43;;
21258;SDS011;10787;53.364;-1.480;2022-11-20T07:51:20;8.93;;;6.37;;
21258;SDS011;10787;53.364;-1.480;2022-11-20T07:53:47;12.27;;;7.57;;
21258;SDS011;10787;53.364;-1.480;2022-11-20T07:56:12;12.67;;;7.17;;
21258;SDS011;10787;53.364;-1.480;2022-11-20T07:58:39;14.17;;;7.60;;
21258;SDS011;10787;53.364;-1.480;2022-11-20T08:01:06;13.33;;;7.50;;
21258;SDS011;10787;53.364;-1.480;2022-11-20T08:03:32;11.33;;;7.10;;
21258;SDS011;10787;53.364;-1.480;2022-11-20T08:05:59;15.17;;;7.73;;
21258;SDS011;10787;53.364;-1.480;2022-11-20T08:08:26;9.53;;;6.50;;
21258;SDS011;10787;53.364;-1.480;2022-11-20T08:10:53;12.30;;;7.77;;
21258;SDS011;10787;53.364;-1.480;2022-11-20T08:13:39;16.00;;;8.17;;
21258;SDS011;10787;53.364;-1.480;2022-11-20T08:16:24;13.20;;;8.13;;
21258;SDS011;10787;53.364;-1.480;2022-11-20T08:18:50;13.57;;;8.60;;
21258;SDS011;10787;53.364;-1.480;2022-11-20T08:21:15;13.53;;;7.80;;
21258;SDS011;10787;53.364;-1.480;2022-11-20T08:23:41;12.43;;;6.30;;
21258;SDS011;10787;53.364;-1.480;2022-11-20T08:26:08;11.43;;;6.10;;
21258;SDS011;10787;53.364;-1.480;2022-11-20T08:28:34;14.07;;;6.23;;
21258;SDS011;10787;53.364;-1.480;2022-11-20T08:31:02;12.47;;;6.27;;
21258;SDS011;10787;53.364;-1.480;2022-11-20T08:33:28;16.20;;;6.83;;
21258;SDS011;10787;53.364;-1.480;2022-11-20T08:36:03;11.70;;;5.90;;
21258;SDS011;10787;53.364;-1.480;2022-11-20T08:38:31;16.20;;;6.00;;
21258;SDS011;10787;53.364;-1.480;2022-11-20T08:41:00;8.47;;;4.27;;
21258;SDS011;10787;53.364;-1.480;2022-11-20T08:43:46;10.70;;;4.67;;
21258;SDS011;10787;53.364;-1.480;2022-11-20T08:46:12;10.93;;;4.40;;
21258;SDS011;10787;53.364;-1.480;2022-11-20T08:48:38;12.80;;;4.87;;
21258;SDS011;10787;53.364;-1.480;2022-11-20T08:51:04;14.30;;;4.60;;
21258;SDS011;10787;53.364;-1.480;2022-11-20T08:53:30;11.73;;;4.93;;
21258;SDS011;10787;53.364;-1.480;2022-11-20T08:55:56;10.27;;;4.27;;
21258;SDS011;10787;53.364;-1.480;2022-11-20T08:58:23;11.97;;;4.73;;
21258;SDS011;10787;53.364;-1.480;2022-11-20T09:00:49;12.23;;;6.10;;
21258;SDS011;10787;53.364;-1.480;2022-11-20T09:03:15;12.80;;;5.80;;
21258;SDS011;10787;53.364;-1.480;2022-11-20T09:05:41;18.83;;;6.80;;
21258;SDS011;10787;53.364;-1.480;2022-11-20T09:08:08;12.77;;;6.33;;
21258;SDS011;10787;53.364;-1.480;2022-11-20T09:10:34;14.50;;;6.60;;
21258;SDS011;10787;53.364;-1.480;2022-11-20T09:12:59;12.53;;;7.03;;
21258;SDS011;10787;53.364;-1.480;2022-11-20T09:15:26;18.93;;;8.77;;
21258;SDS011;10787;53.364;-1.480;2022-11-20T09:17:53;21.63;;;8.77;;
21258;SDS011;10787;53.364;-1.480;2022-11-20T09:20:20;16.97;;;7.03;;
21258;SDS011;10787;53.364;-1.480;2022-11-20T09:22:46;15.30;;;7.37;;
21258;SDS011;10787;53.364;-1.480;2022-11-20T09:25:13;19.43;;;8.30;;
21258;SDS011;10787;53.364;-1.480;2022-11-20T09:27:38;22.50;;;9.23;;
21258;SDS011;10787;53.364;-1.480;2022-11-20T09:30:06;22.73;;;8.20;;
21258;SDS011;10787;53.364;-1.480;2022-11-20T09:32:32;21.00;;;8.00;;
21258;SDS011;10787;53.364;-1.480;2022-11-20T09:34:58;20.43;;;7.73;;
21258;SDS011;10787;53.364;-1.480;2022-11-20T09:37:24;17.47;;;5.33;;
21258;SDS011;10787;53.364;-1.480;2022-11-20T09:39:50;15.20;;;5.50;;
21258;SDS011;10787;53.364;-1.480;2022-11-20T09:50:36;16.13;;;5.50;;
21258;SDS011;10787;53.364;-1.480;2022-11-20T09:53:12;27.07;;;5.77;;
21258;SDS011;10787;53.364;-1.480;2022-11-20T09:55:46;15.60;;;4.80;;
21258;SDS011;10787;53.364;-1.480;2022-11-20T09:58:15;22.07;;;5.80;;
21258;SDS011;10787;53.364;-1.480;2022-11-20T10:00:51;21.37;;;5.03;;
21258;SDS011;10787;53.364;-1.480;2022-11-20T10:03:35;15.37;;;4.90;;
21258;SDS011;10787;53.364;-1.480;2022-11-20T10:06:24;16.20;;;4.47;;
21258;SDS011;10787;53.364;-1.480;2022-11-20T10:09:01;13.93;;;4.53;;
21258;SDS011;10787;53.364;-1.480;2022-11-20T10:11:35;14.53;;;4.77;;
21258;SDS011;10787;53.364;-1.480;2022-11-20T10:14:25;17.33;;;5.43;;
21258;SDS011;10787;53.364;-1.480;2022-11-20T10:22:53;13.37;;;4.00;;
21258;SDS011;10787;53.364;-1.480;2022-11-20T10:25:24;13.50;;;3.83;;
21258;SDS011;10787;53.364;-1.480;2022-11-20T10:31:08;12.47;;;3.20;;
21258;SDS011;10787;53.364;-1.480;2022-11-20T10:33:41;14.70;;;3.77;;
21258;SDS011;10787;53.364;-1.480;2022-11-20T10:41:16;11.23;;;3.77;;
21258;SDS011;10787;53.364;-1.480;2022-11-20T10:44:09;15.80;;;3.30;;
21258;SDS011;10787;53.364;-1.480;2022-11-20T10:47:01;9.70;;;2.70;;
21258;SDS011;10787;53.364;-1.480;2022-11-20T10:49:29;11.73;;;2.77;;
21258;SDS011;10787;53.364;-1.480;2022-11-20T10:52:09;15.20;;;3.07;;
21258;SDS011;10787;53.364;-1.480;2022-11-20T10:54:43;13.70;;;2.97;;
21258;SDS011;10787;53.364;-1.480;2022-11-20T10:57:22;13.57;;;3.23;;
21258;SDS011;10787;53.364;-1.480;2022-11-20T11:00:00;12.23;;;3.20;;
21258;SDS011;10787;53.364;-1.480;2022-11-20T11:02:55;13.93;;;3.37;;
21258;SDS011;10787;53.364;-1.480;2022-11-20T11:05:40;11.97;;;3.67;;
21258;SDS011;10787;53.364;-1.480;2022-11-20T11:08:24;14.50;;;3.50;;
21258;SDS011;10787;53.364;-1.480;2022-11-20T11:11:00;17.40;;;3.27;;
21258;SDS011;10787;53.364;-1.480;2022-11-20T11:13:38;12.13;;;3.07;;
21258;SDS011;10787;53.364;-1.480;2022-11-20T11:16:03;11.57;;;3.17;;
21258;SDS011;10787;53.364;-1.480;2022-11-20T11:18:31;16.93;;;3.73;;
21258;SDS011;10787;53.364;-1.480;2022-11-20T11:21:01;15.27;;;3.93;;
21258;SDS011;10787;53.364;-1.480;2022-11-20T11:23:33;13.03;;;4.03;;
21258;SDS011;10787;53.364;-1.480;2022-11-20T11:26:00;13.63;;;4.00;;
21258;SDS011;10787;53.364;-1.480;2022-11-20T11:28:28;16.47;;;3.87;;
21258;SDS011;10787;53.364;-1.480;2022-11-20T11:30:54;11.37;;;3.50;;
21258;SDS011;10787;53.364;-1.480;2022-11-20T11:33:24;13.17;;;3.60;;
21258;SDS011;10787;53.364;-1.480;2022-11-20T11:35:56;12.23;;;3.58;;
21258;SDS011;10787;53.364;-1.480;2022-11-20T11:38:39;11.90;;;3.60;;
21258;SDS011;10787;53.364;-1.480;2022-11-20T11:41:09;10.23;;;3.35;;
21258;SDS011;10787;53.364;-1.480;2022-11-20T11:43:55;8.68;;;3.50;;
21258;SDS011;10787;53.364;-1.480;2022-11-20T11:46:49;10.90;;;3.28;;
21258;SDS011;10787;53.364;-1.480;2022-11-20T11:49:20;9.32;;;3.10;;
21258;SDS011;10787;53.364;-1.480;2022-11-20T11:57:23;9.25;;;2.83;;
21258;SDS011;10787;53.364;-1.480;2022-11-20T12:02:44;11.55;;;2.70;;
21258;SDS011;10787;53.364;-1.480;2022-11-20T12:10:41;9.23;;;2.72;;
21258;SDS011;10787;53.364;-1.480;2022-11-20T12:15:56;9.13;;;2.95;;
21258;SDS011;10787;53.364;-1.480;2022-11-20T12:18:22;13.18;;;3.17;;
21258;SDS011;10787;53.364;-1.480;2022-11-20T12:20:53;12.05;;;3.17;;
21258;SDS011;10787;53.364;-1.480;2022-11-20T12:29:02;9.63;;;2.92;;
21258;SDS011;10787;53.364;-1.480;2022-11-20T12:37:08;10.45;;;3.20;;
21258;SDS011;10787;53.364;-1.480;2022-11-20T12:39:46;11.48;;;2.60;;
21258;SDS011;10787;53.364;-1.480;2022-11-20T12:47:58;11.87;;;2.80;;
21258;SDS011;10787;53.364;-1.480;2022-11-20T12:50:44;11.77;;;2.50;;
21258;SDS011;10787;53.364;-1.480;2022-11-20T12:59:23;15.93;;;2.50;;
21258;SDS011;10787;53.364;-1.480;2022-11-20T13:02:10;13.73;;;3.07;;
21258;SDS011;10787;53.364;-1.480;2022-11-20T13:07:23;12.90;;;2.97;;
21258;SDS011;10787;53.364;-1.480;2022-11-20T13:09:51;14.33;;;2.70;;
21258;SDS011;10787;53.364;-1.480;2022-11-20T13:15:25;13.97;;;2.93;;
21258;SDS011;10787;53.364;-1.480;2022-11-20T13:18:08;10.67;;;2.80;;
21258;SDS011;10787;53.364;-1.480;2022-11-20T13:20:35;15.43;;;3.30;;
21258;SDS011;10787;53.364;-1.480;2022-11-20T13:23:23;12.30;;;3.13;;
21258;SDS011;10787;53.364;-1.480;2022-11-20T13:25:51;14.80;;;3.00;;
21258;SDS011;10787;53.364;-1.480;2022-11-20T13:28:29;11.43;;;2.80;;
21258;SDS011;10787;53.364;-1.480;2022-11-20T13:30:55;12.27;;;2.73;;
21258;SDS011;10787;53.364;-1.480;2022-11-20T13:33:23;14.00;;;2.80;;
21258;SDS011;10787;53.364;-1.480;2022-11-20T13:38:55;11.70;;;3.37;;
21258;SDS011;10787;53.364;-1.480;2022-11-20T13:46:47;13.07;;;3.30;;
21258;SDS011;10787;53.364;-1.480;2022-11-20T13:49:18;12.47;;;2.97;;
21258;SDS011;10787;53.364;-1.480;2022-11-20T13:55:02;12.73;;;3.00;;
21258;SDS011;10787;53.364;-1.480;2022-11-20T14:00:32;10.33;;;2.50;;
21258;SDS011;10787;53.364;-1.480;2022-11-20T14:03:09;12.27;;;2.80;;
21258;SDS011;10787;53.364;-1.480;2022-11-20T14:05:45;13.40;;;2.90;;
21258;SDS011;10787;53.364;-1.480;2022-11-20T14:08:26;13.50;;;2.77;;
21258;SDS011;10787;53.364;-1.480;2022-11-20T14:11:02;11.90;;;2.90;;
21258;SDS011;10787;53.364;-1.480;2022-11-20T14:13:29;10.37;;;2.80;;
21258;SDS011;10787;53.364;-1.480;2022-11-20T14:15:58;12.80;;;3.10;;
21258;SDS011;10787;53.364;-1.480;2022-11-20T14:18:25;14.93;;;3.10;;
21258;SDS011;10787;53.364;-1.480;2022-11-20T14:20:52;17.33;;;2.83;;
21258;SDS011;10787;53.364;-1.480;2022-11-20T14:23:25;13.90;;;2.93;;
21258;SDS011;10787;53.364;-1.480;2022-11-20T14:25:53;13.17;;;3.23;;
21258;SDS011;10787;53.364;-1.480;2022-11-20T14:28:22;10.77;;;2.90;;
21258;SDS011;10787;53.364;-1.480;2022-11-20T14:30:51;13.40;;;2.93;;
21258;SDS011;10787;53.364;-1.480;2022-11-20T14:33:17;15.20;;;3.60;;
21258;SDS011;10787;53.364;-1.480;2022-11-20T14:35:46;16.20;;;3.90;;
21258;SDS011;10787;53.364;-1.480;2022-11-20T14:38:14;16.93;;;5.53;;
21258;SDS011;10787;53.364;-1.480;2022-11-20T14:40:42;16.27;;;3.90;;
21258;SDS011;10787;53.364;-1.480;2022-11-20T14:43:27;14.57;;;3.53;;
21258;SDS011;10787;53.364;-1.480;2022-11-20T14:46:03;15.30;;;3.60;;
21258;SDS011;10787;53.364;-1.480;2022-11-20T14:48:38;12.57;;;3.30;;
21258;SDS011;10787;53.364;-1.480;2022-11-20T14:51:22;13.03;;;3.60;;
21258;SDS011;10787;53.364;-1.480;2022-11-20T14:53:52;13.57;;;3.90;;
21258;SDS011;10787;53.364;-1.480;2022-11-20T14:56:24;17.03;;;4.03;;
21258;SDS011;10787;53.364;-1.480;2022-11-20T14:58:56;15.13;;;3.53;;
21258;SDS011;10787;53.364;-1.480;2022-11-20T15:01:29;13.70;;;3.47;;
21258;SDS011;10787;53.364;-1.480;2022-11-20T15:04:08;16.43;;;3.50;;
21258;SDS011;10787;53.364;-1.480;2022-11-20T15:06:36;15.43;;;3.67;;
21258;SDS011;10787;53.364;-1.480;2022-11-20T15:09:03;17.47;;;3.67;;
21258;SDS011;10787;53.364;-1.480;2022-11-20T15:11:32;21.57;;;4.37;;
21258;SDS011;10787;53.364;-1.480;2022-11-20T15:14:04;17.83;;;5.10;;
21258;SDS011;10787;53.364;-1.480;2022-11-20T15:16:31;13.43;;;4.47;;
21258;SDS011;10787;53.364;-1.480;2022-11-20T15:18:58;15.50;;;4.80;;
21258;SDS011;10787;53.364;-1.480;2022-11-20T15:21:24;14.90;;;5.30;;
21258;SDS011;10787;53.364;-1.480;2022-11-20T15:23:50;24.43;;;8.17;;
21258;SDS011;10787;53.364;-1.480;2022-11-20T15:26:26;20.63;;;7.07;;
21258;SDS011;10787;53.364;-1.480;2022-11-20T15:28:53;20.03;;;5.20;;
21258;SDS011;10787;53.364;-1.480;2022-11-20T15:31:21;21.23;;;6.77;;
21258;SDS011;10787;53.364;-1.480;2022-11-20T15:33:48;18.17;;;6.40;;
21258;SDS011;10787;53.364;-1.480;2022-11-20T15:36:14;20.17;;;6.97;;
21258;SDS011;10787;53.364;-1.480;2022-11-20T15:38:40;17.00;;;5.70;;
21258;SDS011;10787;53.364;-1.480;2022-11-20T15:41:06;34.40;;;15.77;;
21258;SDS011;10787;53.364;-1.480;2022-11-20T15:43:32;17.67;;;6.37;;
21258;SDS011;10787;53.364;-1.480;2022-11-20T15:46:11;11.27;;;4.70;;
21258;SDS011;10787;53.364;-1.480;2022-11-20T15:48:44;13.87;;;4.73;;
21258;SDS011;10787;53.364;-1.480;2022-11-20T15:53:38;10.77;;;3.70;;
21258;SDS011;10787;53.364;-1.480;2022-11-20T15:56:05;11.40;;;4.23;;
21258;SDS011;10787;53.364;-1.480;2022-11-20T15:58:36;9.83;;;2.70;;
21258;SDS011;10787;53.364;-1.480;2022-11-20T16:01:02;10.17;;;3.37;;
21258;SDS011;10787;53.364;-1.480;2022-11-20T16:03:27;8.90;;;3.00;;
21258;SDS011;10787;53.364;-1.480;2022-11-20T16:05:53;10.93;;;4.23;;
21258;SDS011;10787;53.364;-1.480;2022-11-20T16:08:20;11.00;;;4.63;;
21258;SDS011;10787;53.364;-1.480;2022-11-20T16:10:45;14.90;;;6.53;;
21258;SDS011;10787;53.364;-1.480;2022-11-20T16:13:15;5.00;;;2.50;;